Time;durP1;ratioP1;P1;durP2;ratioP2;P2;SDS_P1;SDS_P2;PMS_P1;PMS_P2;Temp;Humidity;BMP_temperature;BMP_pressure;BME280_temperature;BME280_humidity;BME280_pressure;Samples;Min_cycle;Max_cycle;Signal;HPM_P1;HPM_P2
2023/08/03 00:01:25;;;;;;;20.90;3.47;;;17.60;99.90;;;;;;7284566;19;20244;-76
2023/08/03 00:03:50;;;;;;;18.90;3.30;;;17.70;99.90;;;;;;7284691;19;20278;-75
2023/08/03 00:06:16;;;;;;;17.33;3.43;;;17.70;99.90;;;;;;7287305;19;20196;-76
2023/08/03 00:08:42;;;;;;;20.03;3.47;;;17.70;99.90;;;;;;7308917;19;20192;-76
2023/08/03 00:11:07;;;;;;;16.47;3.37;;;17.70;99.90;;;;;;7294054;19;20185;-77
2023/08/03 00:13:33;;;;;;;14.27;3.40;;;17.70;99.90;;;;;;7297731;19;20185;-76
2023/08/03 00:15:59;;;;;;;17.23;3.30;;;17.70;99.90;;;;;;7300171;19;20181;-76
2023/08/03 00:18:25;;;;;;;17.07;3.37;;;17.70;99.90;;;;;;7300222;19;20857;-77
2023/08/03 00:20:51;;;;;;;16.53;3.47;;;17.70;99.90;;;;;;7288024;19;20272;-76
2023/08/03 00:23:16;;;;;;;14.20;3.33;;;17.70;99.90;;;;;;7285589;19;20185;-75
2023/08/03 00:25:42;;;;;;;16.37;3.20;;;17.70;99.90;;;;;;7308128;19;20221;-76
2023/08/03 00:28:08;;;;;;;13.90;2.50;;;17.70;99.90;;;;;;7285211;19;20310;-76
2023/08/03 00:30:33;;;;;;;14.97;3.10;;;17.80;99.90;;;;;;7285188;19;20792;-77
2023/08/03 00:33:00;;;;;;;20.43;3.80;;;17.70;99.90;;;;;;7286074;19;20195;-76
2023/08/03 00:35:25;;;;;;;17.03;3.27;;;17.80;99.90;;;;;;7284580;19;20200;-76
2023/08/03 00:37:53;;;;;;;14.47;3.37;;;17.80;99.90;;;;;;7285503;19;20639;-76
2023/08/03 00:40:20;;;;;;;13.53;3.17;;;17.80;99.90;;;;;;7283836;19;20222;-76
2023/08/03 00:42:46;;;;;;;15.53;2.90;;;17.90;99.90;;;;;;7283332;19;20216;-76
2023/08/03 00:45:12;;;;;;;14.87;3.60;;;18.00;99.90;;;;;;7306167;19;20511;-76
2023/08/03 00:47:39;;;;;;;16.43;3.20;;;18.00;99.90;;;;;;7284082;19;20191;-76
2023/08/03 00:50:06;;;;;;;13.63;2.90;;;18.00;99.90;;;;;;7282825;19;20186;-76
2023/08/03 00:52:34;;;;;;;13.07;2.77;;;18.10;99.90;;;;;;7282386;19;20609;-76
2023/08/03 00:55:00;;;;;;;11.10;2.70;;;18.00;99.90;;;;;;7284579;19;20196;-76
2023/08/03 00:57:28;;;;;;;15.37;3.20;;;18.00;99.90;;;;;;7282703;19;20216;-76
2023/08/03 00:59:55;;;;;;;18.87;3.07;;;18.10;99.90;;;;;;7283531;19;20200;-76
2023/08/03 01:02:21;;;;;;;18.47;3.23;;;18.00;99.90;;;;;;7283306;19;20192;-76
2023/08/03 01:04:47;;;;;;;15.73;2.93;;;18.00;99.90;;;;;;7281575;19;20196;-76
2023/08/03 01:07:12;;;;;;;15.63;3.00;;;18.00;99.90;;;;;;7305670;19;20231;-76
2023/08/03 01:09:38;;;;;;;12.77;2.87;;;18.00;99.90;;;;;;7283119;19;20582;-76
2023/08/03 01:12:06;;;;;;;14.17;2.63;;;18.10;99.90;;;;;;7280680;19;20185;-76
2023/08/03 01:14:32;;;;;;;12.90;2.40;;;18.00;99.90;;;;;;7283703;19;20202;-76
2023/08/03 01:16:58;;;;;;;12.07;2.50;;;18.00;99.90;;;;;;7281970;19;20183;-76
2023/08/03 01:19:25;;;;;;;17.23;3.00;;;17.90;99.90;;;;;;7284472;19;20189;-76
2023/08/03 01:21:52;;;;;;;11.97;2.67;;;17.90;99.90;;;;;;7282224;19;20273;-76
2023/08/03 01:24:18;;;;;;;17.47;3.20;;;17.90;99.90;;;;;;7280844;19;20196;-76
2023/08/03 01:26:44;;;;;;;11.07;2.47;;;17.90;99.90;;;;;;7305112;19;21076;-76
2023/08/03 01:29:11;;;;;;;11.97;2.70;;;18.00;99.90;;;;;;7283180;19;20184;-77
2023/08/03 01:31:39;;;;;;;12.77;2.80;;;18.00;99.90;;;;;;7279098;19;20209;-77
2023/08/03 01:34:05;;;;;;;10.97;2.20;;;18.00;99.90;;;;;;7280488;19;20193;-76
2023/08/03 01:36:31;;;;;;;14.40;2.30;;;18.00;99.90;;;;;;7282704;19;20185;-76
2023/08/03 01:39:08;;;;;;;13.40;2.67;;;18.10;99.90;;;;;;7280417;19;20198;-76
2023/08/03 01:41:35;;;;;;;14.37;2.87;;;18.10;99.90;;;;;;7282523;19;20269;-76
2023/08/03 01:44:21;;;;;;;16.67;3.17;;;18.10;99.90;;;;;;7280590;19;20185;-76
2023/08/03 01:46:48;;;;;;;15.23;2.50;;;18.20;99.90;;;;;;7260744;19;20533;-76
2023/08/03 01:49:14;;;;;;;14.13;2.80;;;18.20;99.90;;;;;;7302990;19;20185;-76
2023/08/03 01:51:40;;;;;;;12.07;2.37;;;18.30;99.90;;;;;;7288013;19;20694;-77
2023/08/03 01:54:06;;;;;;;14.57;2.60;;;18.30;99.90;;;;;;7281760;19;20184;-77
2023/08/03 01:56:32;;;;;;;13.57;2.43;;;18.20;99.90;;;;;;7282104;19;20177;-76
2023/08/03 01:58:58;;;;;;;13.80;2.20;;;18.20;99.90;;;;;;7281539;19;20215;-76
2023/08/03 02:01:24;;;;;;;13.07;2.13;;;18.20;99.90;;;;;;7280423;19;20193;-76
2023/08/03 02:03:50;;;;;;;10.80;2.13;;;18.30;99.90;;;;;;7279705;19;20196;-76
2023/08/03 02:06:15;;;;;;;13.23;2.10;;;18.20;99.90;;;;;;7285412;19;20222;-76
2023/08/03 02:08:41;;;;;;;9.10;1.70;;;18.10;99.90;;;;;;7301882;19;20204;-76
2023/08/03 02:11:07;;;;;;;8.07;1.77;;;18.10;99.90;;;;;;7279305;19;20572;-76
2023/08/03 02:13:33;;;;;;;13.93;2.20;;;18.10;99.90;;;;;;7281472;19;20196;-76
2023/08/03 02:16:03;;;;;;;9.30;1.83;;;18.10;99.90;;;;;;7282593;19;20193;-76
2023/08/03 02:18:29;;;;;;;11.53;2.10;;;18.10;99.90;;;;;;7280851;19;20194;-76
2023/08/03 02:20:55;;;;;;;13.30;2.23;;;18.20;99.90;;;;;;7279168;19;20212;-76
2023/08/03 02:23:21;;;;;;;8.90;1.90;;;18.10;99.90;;;;;;7281104;19;20265;-76
2023/08/03 02:25:47;;;;;;;13.17;2.37;;;18.10;99.90;;;;;;7283323;19;20197;-76
2023/08/03 02:28:13;;;;;;;9.07;2.13;;;18.00;99.90;;;;;;7304891;19;20207;-76
2023/08/03 02:30:39;;;;;;;13.20;2.17;;;18.00;99.90;;;;;;7282704;19;20256;-76
2023/08/03 02:33:08;;;;;;;12.00;2.20;;;18.10;99.90;;;;;;7281425;19;20173;-76
2023/08/03 02:35:37;;;;;;;13.33;2.37;;;18.10;99.90;;;;;;7280860;19;20907;-77
2023/08/03 02:38:03;;;;;;;8.27;2.20;;;18.00;99.90;;;;;;7281694;19;20198;-76
2023/08/03 02:40:30;;;;;;;11.93;2.30;;;18.00;99.90;;;;;;7281312;19;20211;-76
2023/08/03 02:42:56;;;;;;;9.57;2.30;;;18.10;99.90;;;;;;7280340;19;20190;-77
2023/08/03 02:45:22;;;;;;;10.47;2.67;;;18.00;99.90;;;;;;7280154;19;20291;-76
2023/08/03 02:47:50;;;;;;;12.27;2.50;;;18.00;99.90;;;;;;7279198;19;20200;-76
2023/08/03 02:50:19;;;;;;;10.10;2.20;;;18.00;99.90;;;;;;7279303;19;20212;-76
2023/08/03 02:52:46;;;;;;;11.10;2.27;;;17.90;99.90;;;;;;7281574;19;20581;-76
2023/08/03 02:55:13;;;;;;;10.43;2.20;;;18.00;99.90;;;;;;7301571;19;20249;-76
2023/08/03 02:57:39;;;;;;;11.67;2.20;;;18.00;99.90;;;;;;7280672;19;20568;-76
2023/08/03 03:00:09;;;;;;;8.23;1.83;;;18.00;99.90;;;;;;7279956;19;20179;-77
2023/08/03 03:02:36;;;;;;;8.50;1.77;;;17.90;99.90;;;;;;7277955;19;20186;-77
2023/08/03 03:05:03;;;;;;;10.67;1.97;;;17.90;99.90;;;;;;7278091;19;20660;-78
2023/08/03 03:07:33;;;;;;;10.07;2.13;;;18.00;99.90;;;;;;7279351;19;20198;-76
2023/08/03 03:10:00;;;;;;;10.87;2.00;;;18.00;99.90;;;;;;7278965;19;20235;-76
2023/08/03 03:12:26;;;;;;;9.97;1.73;;;18.00;99.90;;;;;;7278169;19;20185;-76
2023/08/03 03:14:52;;;;;;;10.20;1.90;;;18.00;99.90;;;;;;7278478;19;20220;-76
2023/08/03 03:17:18;;;;;;;6.63;1.80;;;18.00;99.90;;;;;;7279365;19;20195;-76
2023/08/03 03:19:46;;;;;;;9.73;1.77;;;18.10;99.90;;;;;;7289221;19;20213;-76
2023/08/03 03:22:13;;;;;;;8.87;1.60;;;18.10;99.90;;;;;;7303721;19;20206;-77
2023/08/03 03:24:40;;;;;;;10.33;2.37;;;18.10;99.90;;;;;;7282425;19;20191;-77
2023/08/03 03:27:06;;;;;;;13.17;2.23;;;18.00;99.90;;;;;;7283034;19;20186;-76
2023/08/03 03:29:37;;;;;;;6.77;1.70;;;18.10;99.90;;;;;;7281764;19;20189;-77
2023/08/03 03:32:03;;;;;;;12.83;1.90;;;18.00;99.90;;;;;;7280978;19;20637;-76
2023/08/03 03:34:28;;;;;;;8.70;1.77;;;18.10;99.90;;;;;;7279497;19;20244;-77
2023/08/03 03:36:56;;;;;;;8.90;2.13;;;18.00;99.90;;;;;;7277861;19;20193;-77
2023/08/03 03:39:22;;;;;;;9.23;1.93;;;18.10;99.90;;;;;;7278290;19;20196;-77
2023/08/03 03:41:50;;;;;;;11.53;2.20;;;18.10;99.90;;;;;;7278795;19;20192;-76
2023/08/03 03:44:18;;;;;;;12.67;2.00;;;18.10;99.90;;;;;;7277088;19;20189;-76
2023/08/03 03:46:43;;;;;;;9.73;1.90;;;18.20;99.90;;;;;;7301346;19;20187;-76
2023/08/03 03:49:09;;;;;;;10.20;1.73;;;18.20;99.90;;;;;;7277846;19;20214;-76
2023/08/03 03:51:35;;;;;;;10.70;1.87;;;18.10;99.90;;;;;;7276970;19;20188;-76
2023/08/03 03:54:01;;;;;;;10.20;1.90;;;18.10;99.90;;;;;;7277719;19;20229;-76
2023/08/03 03:56:27;;;;;;;10.73;2.00;;;18.10;99.90;;;;;;7276782;19;20193;-77
2023/08/03 03:58:53;;;;;;;10.60;1.90;;;18.10;99.90;;;;;;7276948;19;20728;-76
2023/08/03 04:01:19;;;;;;;11.73;2.37;;;18.10;99.90;;;;;;7277410;19;20257;-77
2023/08/03 04:03:49;;;;;;;12.23;2.33;;;18.10;99.90;;;;;;7275378;19;20205;-76
2023/08/03 04:06:15;;;;;;;7.70;1.80;;;18.00;99.90;;;;;;7286565;19;20258;-76
2023/08/03 04:08:41;;;;;;;6.70;1.70;;;18.00;99.90;;;;;;7294936;19;20181;-76
2023/08/03 04:11:07;;;;;;;14.90;2.07;;;18.00;99.90;;;;;;7275961;19;20193;-76
2023/08/03 04:13:34;;;;;;;11.80;2.10;;;18.00;99.90;;;;;;7277267;19;20189;-76
2023/08/03 04:16:00;;;;;;;12.00;2.13;;;18.10;99.90;;;;;;7281526;19;20569;-76
2023/08/03 04:18:27;;;;;;;9.40;1.90;;;18.00;99.90;;;;;;7276967;19;20600;-76
2023/08/03 04:20:54;;;;;;;15.33;2.07;;;18.10;99.90;;;;;;7284083;19;20260;-76
2023/08/03 04:23:20;;;;;;;10.47;1.80;;;18.10;99.90;;;;;;7282798;19;20197;-77
2023/08/03 04:25:46;;;;;;;11.43;2.00;;;18.00;99.90;;;;;;7281397;19;20204;-76
2023/08/03 04:28:16;;;;;;;11.53;2.10;;;18.00;99.90;;;;;;7284395;19;20297;-76
2023/08/03 04:30:42;;;;;;;8.87;2.10;;;17.90;99.90;;;;;;7306327;19;20191;-76
2023/08/03 04:33:08;;;;;;;14.07;2.23;;;17.90;99.90;;;;;;7282454;19;20195;-76
2023/08/03 04:35:37;;;;;;;10.53;2.03;;;18.00;99.90;;;;;;7283970;19;20185;-76
2023/08/03 04:38:09;;;;;;;11.83;2.13;;;18.10;99.90;;;;;;7284879;19;20201;-76
2023/08/03 04:40:38;;;;;;;10.87;2.07;;;18.10;99.90;;;;;;7285261;19;20195;-76
2023/08/03 04:43:05;;;;;;;10.60;1.93;;;18.10;99.90;;;;;;7283548;19;20222;-76
2023/08/03 04:45:31;;;;;;;11.53;2.13;;;18.10;99.90;;;;;;7281502;19;20552;-76
2023/08/03 04:47:57;;;;;;;10.37;1.90;;;18.10;99.90;;;;;;7280622;19;20230;-77
2023/08/03 04:50:23;;;;;;;9.73;1.87;;;18.10;99.90;;;;;;7282087;19;20201;-77
2023/08/03 04:52:50;;;;;;;13.03;1.97;;;18.00;99.90;;;;;;7345818;19;20210;-76
2023/08/03 04:55:19;;;;;;;8.97;1.80;;;18.00;99.90;;;;;;7281647;19;20195;-76
2023/08/03 04:57:45;;;;;;;10.57;2.00;;;18.00;99.90;;;;;;7294873;19;20583;-76
2023/08/03 05:00:12;;;;;;;6.53;1.40;;;18.00;99.90;;;;;;7303214;19;20802;-76
2023/08/03 05:02:38;;;;;;;6.33;1.70;;;18.00;99.90;;;;;;7281915;19;20213;-76
2023/08/03 05:05:05;;;;;;;11.30;2.23;;;18.00;99.90;;;;;;7282256;19;20215;-76
2023/08/03 05:07:30;;;;;;;8.87;1.80;;;18.00;99.90;;;;;;7283804;19;20188;-76
2023/08/03 05:09:56;;;;;;;12.80;2.23;;;18.00;99.90;;;;;;7278981;19;20197;-76
2023/08/03 05:12:22;;;;;;;10.27;1.80;;;18.00;99.90;;;;;;7281135;19;20188;-76
2023/08/03 05:14:49;;;;;;;11.53;1.93;;;18.10;99.90;;;;;;7281224;19;20193;-76
2023/08/03 05:17:15;;;;;;;7.77;1.53;;;18.20;99.90;;;;;;7300255;19;20181;-76
2023/08/03 05:19:41;;;;;;;15.70;2.17;;;18.20;99.90;;;;;;7290507;19;20208;-76
2023/08/03 05:22:06;;;;;;;8.87;1.80;;;18.30;99.90;;;;;;7280561;19;20223;-76
2023/08/03 05:24:32;;;;;;;12.77;1.83;;;18.30;99.90;;;;;;7283561;19;20191;-76
2023/08/03 05:26:58;;;;;;;10.87;2.10;;;18.30;99.90;;;;;;7282390;19;20269;-76
2023/08/03 05:29:25;;;;;;;10.67;2.03;;;18.30;99.90;;;;;;7281180;19;20250;-76
2023/08/03 05:31:50;;;;;;;11.37;2.00;;;18.40;99.90;;;;;;7280902;19;20312;-76
2023/08/03 05:34:16;;;;;;;11.57;2.23;;;18.30;99.90;;;;;;7284722;19;20618;-76
2023/08/03 05:36:42;;;;;;;13.97;2.20;;;18.20;99.90;;;;;;7304975;19;20564;-76
2023/08/03 05:39:08;;;;;;;14.93;3.20;;;18.30;99.90;;;;;;7281594;19;20234;-76
2023/08/03 05:41:34;;;;;;;8.73;2.23;;;18.20;99.90;;;;;;7279909;19;20189;-76
2023/08/03 05:44:01;;;;;;;11.67;2.53;;;18.30;99.90;;;;;;7279401;19;20213;-76
2023/08/03 05:46:32;;;;;;;11.97;2.40;;;18.20;99.90;;;;;;7281153;19;20191;-76
2023/08/03 05:48:58;;;;;;;11.87;2.80;;;18.20;99.90;;;;;;7281309;19;20200;-76
2023/08/03 05:51:25;;;;;;;12.87;2.80;;;18.30;99.90;;;;;;7278162;19;20209;-76
2023/08/03 05:53:55;;;;;;;14.33;3.63;;;18.40;99.90;;;;;;7281088;19;20549;-76
2023/08/03 05:56:22;;;;;;;10.23;2.47;;;18.40;99.90;;;;;;7281478;19;20310;-76
2023/08/03 05:58:49;;;;;;;11.77;2.33;;;18.10;99.90;;;;;;7280881;19;20199;-76
2023/08/03 06:01:22;;;;;;;7.90;2.03;;;18.00;99.90;;;;;;7294881;19;21156;-77
2023/08/03 06:03:51;;;;;;;5.57;1.90;;;17.80;99.90;;;;;;7260728;19;20193;-76
2023/08/03 06:06:18;;;;;;;8.23;2.07;;;17.80;99.90;;;;;;7284012;19;20252;-77
2023/08/03 06:08:53;;;;;;;9.50;2.20;;;17.80;99.90;;;;;;7304076;19;20263;-77
2023/08/03 06:11:20;;;;;;;7.27;1.90;;;17.90;99.90;;;;;;7260638;19;20192;-77
2023/08/03 06:13:47;;;;;;;9.10;1.70;;;17.90;99.90;;;;;;7289633;19;20192;-76
2023/08/03 06:16:14;;;;;;;7.40;1.97;;;17.80;99.90;;;;;;7306186;19;20591;-76
2023/08/03 06:18:52;;;;;;;5.63;1.80;;;17.80;99.90;;;;;;7281919;19;20207;-76
2023/08/03 06:21:19;;;;;;;7.87;2.20;;;17.90;99.90;;;;;;7259854;19;20192;-76
2023/08/03 06:24:03;;;;;;;5.87;2.30;;;17.90;99.90;;;;;;7300685;19;20203;-76
2023/08/03 06:26:33;;;;;;;7.53;1.80;;;18.00;99.90;;;;;;7280317;19;20184;-77
2023/08/03 06:29:01;;;;;;;5.20;1.70;;;18.00;99.90;;;;;;7282432;19;21017;-76
2023/08/03 06:31:35;;;;;;;13.43;1.93;;;18.00;99.90;;;;;;7279794;19;20184;-77
2023/08/03 06:34:04;;;;;;;6.43;1.60;;;18.10;99.90;;;;;;7280818;19;20197;-76
2023/08/03 06:36:30;;;;;;;5.97;1.53;;;18.20;99.90;;;;;;7281563;19;20582;-77
2023/08/03 06:38:57;;;;;;;11.23;1.90;;;18.30;99.90;;;;;;7278433;19;20605;-77
2023/08/03 06:41:24;;;;;;;7.47;1.90;;;18.40;99.90;;;;;;7281738;19;20289;-77
2023/08/03 06:43:51;;;;;;;9.37;2.20;;;18.40;99.90;;;;;;7280436;19;20189;-75
2023/08/03 06:46:16;;;;;;;5.90;1.83;;;18.50;99.90;;;;;;7284833;19;20712;-75
2023/08/03 06:48:42;;;;;;;6.10;1.90;;;18.60;99.90;;;;;;7304199;19;20192;-76
2023/08/03 06:51:08;;;;;;;4.73;2.00;;;18.60;99.90;;;;;;7279776;19;20356;-76
2023/08/03 06:53:34;;;;;;;9.17;3.00;;;18.60;99.90;;;;;;7281067;19;20191;-76
2023/08/03 06:56:00;;;;;;;6.17;2.00;;;18.50;99.90;;;;;;7282067;19;20553;-76
2023/08/03 06:58:26;;;;;;;7.40;2.23;;;18.60;99.90;;;;;;7280976;19;20208;-76
2023/08/03 07:00:53;;;;;;;8.67;2.50;;;18.70;99.90;;;;;;7281341;19;20550;-76
2023/08/03 07:03:18;;;;;;;6.43;2.50;;;18.60;99.90;;;;;;7277291;19;20623;-76
2023/08/03 07:05:45;;;;;;;5.90;2.10;;;18.70;99.90;;;;;;7300457;19;20192;-77
2023/08/03 07:08:11;;;;;;;6.53;2.30;;;18.80;99.90;;;;;;7281257;19;20191;-76
2023/08/03 07:10:37;;;;;;;7.23;1.97;;;19.00;99.90;;;;;;7277959;19;20603;-76
2023/08/03 07:13:03;;;;;;;6.53;1.90;;;19.00;99.90;;;;;;7278467;19;20557;-77
2023/08/03 07:15:35;;;;;;;6.73;2.00;;;19.00;99.90;;;;;;7277471;19;20194;-76
2023/08/03 07:18:05;;;;;;;6.30;2.00;;;19.10;99.90;;;;;;7277134;19;20800;-77
2023/08/03 07:20:33;;;;;;;6.97;1.90;;;19.10;99.90;;;;;;7279930;19;20661;-77
2023/08/03 07:22:58;;;;;;;7.73;2.20;;;19.10;99.90;;;;;;7279524;19;20251;-77
2023/08/03 07:25:25;;;;;;;9.00;2.20;;;19.00;99.90;;;;;;7279754;19;20255;-76
2023/08/03 07:27:52;;;;;;;4.73;1.93;;;19.10;99.90;;;;;;7281217;19;20185;-77
2023/08/03 07:30:18;;;;;;;7.10;1.90;;;19.40;99.90;;;;;;7281200;19;20189;-77
2023/08/03 07:32:44;;;;;;;6.80;2.13;;;19.60;99.90;;;;;;7302797;19;20656;-77
2023/08/03 07:35:09;;;;;;;4.27;1.60;;;19.80;99.90;;;;;;7278985;19;20191;-77
2023/08/03 07:37:35;;;;;;;9.73;2.40;;;20.00;99.90;;;;;;7281120;19;20190;-77
2023/08/03 07:40:01;;;;;;;8.60;2.20;;;20.10;99.90;;;;;;7280730;19;20204;-77
2023/08/03 07:42:27;;;;;;;10.13;2.43;;;20.30;99.90;;;;;;7279864;19;20211;-77
2023/08/03 07:44:53;;;;;;;8.03;2.20;;;20.30;99.90;;;;;;7275222;19;20612;-76
2023/08/03 07:47:20;;;;;;;8.13;2.47;;;19.90;99.90;;;;;;7279211;19;20188;-77
2023/08/03 07:49:45;;;;;;;9.07;2.40;;;20.00;99.90;;;;;;7293044;19;20228;-77
2023/08/03 07:52:11;;;;;;;8.53;2.63;;;19.80;99.90;;;;;;7299176;19;20183;-76
2023/08/03 07:54:37;;;;;;;8.27;2.67;;;19.90;99.90;;;;;;7284650;19;20200;-76
2023/08/03 07:57:04;;;;;;;10.57;3.30;;;19.80;99.90;;;;;;7282048;19;20606;-77
2023/08/03 07:59:29;;;;;;;10.77;2.63;;;19.80;99.90;;;;;;7284238;19;20207;-77
2023/08/03 08:01:55;;;;;;;10.57;3.10;;;19.60;99.90;;;;;;7282874;19;20631;-76
2023/08/03 08:04:21;;;;;;;9.97;3.13;;;19.40;99.90;;;;;;7282974;19;20193;-77
2023/08/03 08:06:47;;;;;;;9.43;3.23;;;19.50;99.90;;;;;;7287460;19;20568;-77
2023/08/03 08:09:13;;;;;;;12.17;3.60;;;19.40;99.90;;;;;;7307994;19;20573;-77
2023/08/03 08:11:38;;;;;;;9.27;3.40;;;19.20;99.90;;;;;;7285927;19;20745;-76
2023/08/03 08:14:04;;;;;;;10.93;3.77;;;19.40;99.90;;;;;;7287361;19;20197;-77
2023/08/03 08:16:30;;;;;;;11.37;4.00;;;19.60;99.90;;;;;;7288170;19;20181;-77
2023/08/03 08:18:56;;;;;;;15.13;3.80;;;19.70;99.90;;;;;;7287815;19;20222;-77
2023/08/03 08:21:21;;;;;;;12.97;3.97;;;19.60;99.90;;;;;;7287057;19;20656;-78
2023/08/03 08:23:47;;;;;;;10.80;4.00;;;19.60;99.90;;;;;;7286706;19;20755;-78
2023/08/03 08:26:17;;;;;;;11.93;3.90;;;19.60;99.90;;;;;;7310491;19;20184;-78
2023/08/03 08:28:45;;;;;;;10.37;3.57;;;20.00;99.90;;;;;;7288008;19;20206;-78
2023/08/03 08:31:11;;;;;;;14.57;3.47;;;21.20;99.90;;;;;;7287954;19;20588;-78
2023/08/03 08:33:38;;;;;;;9.67;2.40;;;22.80;99.90;;;;;;7286216;19;20267;-78
2023/08/03 08:36:03;;;;;;;8.70;2.33;;;25.20;99.90;;;;;;7286886;19;20212;-78
2023/08/03 08:38:30;;;;;;;9.07;1.97;;;25.70;99.90;;;;;;7286070;19;20289;-78
2023/08/03 08:41:00;;;;;;;8.97;1.93;;;26.60;99.90;;;;;;7285462;19;20192;-78
2023/08/03 08:43:25;;;;;;;12.57;2.30;;;26.20;99.90;;;;;;7282490;19;20328;-78
2023/08/03 08:45:52;;;;;;;12.53;2.33;;;24.50;99.90;;;;;;7283785;19;20530;-78
2023/08/03 08:48:18;;;;;;;11.90;2.90;;;24.40;99.90;;;;;;7284345;19;20230;-78
2023/08/03 08:50:45;;;;;;;12.87;2.87;;;23.40;99.90;;;;;;7307441;19;20673;-78
2023/08/03 08:53:14;;;;;;;13.97;2.90;;;22.90;99.90;;;;;;7286527;19;20217;-78
2023/08/03 08:55:39;;;;;;;13.93;3.40;;;22.60;99.90;;;;;;7280622;19;20192;-78
2023/08/03 08:58:05;;;;;;;14.60;2.93;;;22.30;99.90;;;;;;7282727;19;20689;-78
2023/08/03 09:00:46;;;;;;;14.80;3.00;;;22.20;99.90;;;;;;7285331;19;20194;-78
2023/08/03 09:03:13;;;;;;;12.70;2.97;;;21.60;99.90;;;;;;7283617;19;20687;-78
2023/08/03 09:05:39;;;;;;;12.03;2.70;;;21.20;99.90;;;;;;7283905;19;20662;-78
2023/08/03 09:08:13;;;;;;;11.07;2.30;;;20.30;99.90;;;;;;7284440;19;20204;-78
2023/08/03 09:10:51;;;;;;;13.50;2.73;;;20.10;99.90;;;;;;7284482;19;20224;-78
2023/08/03 09:13:35;;;;;;;12.17;2.40;;;21.60;99.90;;;;;;7269001;19;20186;-78
2023/08/03 09:16:02;;;;;;;9.87;2.30;;;23.50;99.90;;;;;;7283873;19;20222;-78
2023/08/03 09:18:30;;;;;;;13.00;2.27;;;23.30;99.90;;;;;;7283250;19;20197;-78
2023/08/03 09:21:16;;;;;;;12.97;2.10;;;23.60;99.90;;;;;;7283785;19;20636;-78
2023/08/03 09:23:43;;;;;;;13.57;2.30;;;23.20;99.90;;;;;;7284908;19;20204;-78
2023/08/03 09:26:10;;;;;;;12.43;2.30;;;22.20;99.90;;;;;;7282582;19;20248;-78
2023/08/03 09:28:38;;;;;;;14.47;2.30;;;22.20;99.90;;;;;;7284686;19;20189;-78
2023/08/03 09:31:05;;;;;;;10.87;2.03;;;22.70;99.90;;;;;;7282237;19;20962;-78
2023/08/03 09:33:33;;;;;;;11.50;2.00;;;23.00;99.90;;;;;;7284467;19;20196;-78
2023/08/03 09:36:16;;;;;;;10.87;2.33;;;23.60;99.90;;;;;;7283527;19;20970;-78
2023/08/03 09:38:42;;;;;;;10.43;1.83;;;24.50;99.90;;;;;;7283056;19;20611;-78
2023/08/03 09:41:12;;;;;;;9.70;1.83;;;25.00;99.90;;;;;;7284473;19;20223;-78
2023/08/03 09:43:40;;;;;;;14.00;1.87;;;25.00;99.90;;;;;;7282919;19;20244;-78
2023/08/03 09:46:06;;;;;;;8.63;1.67;;;24.90;99.90;;;;;;7283563;19;20273;-78
2023/08/03 09:48:32;;;;;;;11.43;2.00;;;24.90;99.90;;;;;;7283301;19;20660;-78
2023/08/03 09:50:59;;;;;;;12.33;1.97;;;25.10;99.90;;;;;;7284338;19;20192;-78
2023/08/03 09:53:28;;;;;;;11.10;2.03;;;25.20;99.90;;;;;;7282439;19;20193;-78
2023/08/03 09:56:00;;;;;;;10.80;1.80;;;25.80;99.90;;;;;;7282970;19;20189;-78
2023/08/03 09:59:04;;;;;;;12.83;1.97;;;26.70;99.90;;;;;;7283762;19;20937;-79
2023/08/03 10:01:32;;;;;;;11.07;1.83;;;26.30;99.90;;;;;;7180545;19;2005031;-78
2023/08/03 10:04:03;;;;;;;11.93;2.60;;;26.80;99.90;;;;;;7283323;19;20664;-78
2023/08/03 10:06:38;;;;;;;9.23;1.77;;;27.20;99.90;;;;;;7284588;19;20285;-77
2023/08/03 10:09:06;;;;;;;9.70;1.50;;;27.10;99.90;;;;;;7281699;19;20552;-76
2023/08/03 10:11:36;;;;;;;13.23;2.17;;;26.60;99.90;;;;;;7282461;19;20193;-78
2023/08/03 10:14:05;;;;;;;9.77;1.60;;;25.80;99.90;;;;;;7281801;19;20204;-78
2023/08/03 10:16:34;;;;;;;11.47;1.93;;;25.40;99.90;;;;;;7283767;19;20536;-77
2023/08/03 10:19:02;;;;;;;10.97;1.73;;;24.80;99.90;;;;;;7282314;19;20549;-77
2023/08/03 10:21:29;;;;;;;9.40;1.60;;;24.80;99.90;;;;;;7283120;19;20203;-77
2023/08/03 10:24:07;;;;;;;5.53;1.23;;;24.60;99.90;;;;;;7283595;19;20208;-77
2023/08/03 10:26:33;;;;;;;6.33;1.17;;;24.20;99.90;;;;;;7282296;19;20198;-77
2023/08/03 10:28:59;;;;;;;7.10;1.60;;;24.20;99.90;;;;;;7281085;19;20675;-77
2023/08/03 10:31:25;;;;;;;9.20;1.40;;;24.70;99.90;;;;;;7280770;19;20181;-77
2023/08/03 10:33:53;;;;;;;8.60;1.40;;;24.70;99.90;;;;;;7283787;19;20211;-76
2023/08/03 10:36:30;;;;;;;7.67;1.50;;;23.90;99.90;;;;;;7283302;19;20184;-77
2023/08/03 10:39:03;;;;;;;10.20;1.73;;;24.00;99.90;;;;;;7282777;19;20196;-77
2023/08/03 10:41:41;;;;;;;8.70;1.67;;;24.00;99.90;;;;;;7282764;19;20217;-77
2023/08/03 10:44:07;;;;;;;8.43;2.00;;;24.40;99.90;;;;;;7281998;19;20315;-77
2023/08/03 10:46:34;;;;;;;8.00;1.90;;;24.50;99.90;;;;;;7283112;19;20252;-77
2023/08/03 10:49:22;;;;;;;12.67;2.10;;;24.30;99.90;;;;;;7282501;19;20189;-76
2023/08/03 10:51:54;;;;;;;8.83;1.63;;;23.30;99.90;;;;;;7258399;19;20210;-76
2023/08/03 10:54:29;;;;;;;9.47;1.60;;;23.20;99.90;;;;;;7282941;19;20557;-77
2023/08/03 10:57:09;;;;;;;10.47;1.90;;;23.30;99.90;;;;;;7281033;19;20263;-77
2023/08/03 10:59:43;;;;;;;11.43;1.87;;;23.40;99.90;;;;;;7281757;19;20189;-77
2023/08/03 11:02:30;;;;;;;8.57;1.70;;;23.40;99.90;;;;;;7283980;19;20199;-77
2023/08/03 11:05:02;;;;;;;10.83;1.73;;;23.40;99.90;;;;;;7179618;19;2004636;-77
2023/08/03 11:07:42;;;;;;;9.33;1.67;;;23.30;99.90;;;;;;7282012;19;20654;-77
2023/08/03 11:10:13;;;;;;;11.90;1.60;;;23.40;99.90;;;;;;7281873;19;20259;-78
2023/08/03 11:12:40;;;;;;;12.27;2.00;;;23.50;99.90;;;;;;7279731;19;20275;-78
2023/08/03 11:15:07;;;;;;;10.43;1.87;;;23.50;99.90;;;;;;7277573;19;20204;-78
2023/08/03 11:17:35;;;;;;;11.50;2.00;;;23.30;99.90;;;;;;7282083;19;20270;-78
2023/08/03 11:20:03;;;;;;;19.47;2.73;;;23.00;99.90;;;;;;7282644;19;20283;-78
2023/08/03 11:22:30;;;;;;;8.33;1.70;;;22.80;99.90;;;;;;7279628;19;20271;-77
2023/08/03 11:24:57;;;;;;;8.70;1.57;;;22.40;99.90;;;;;;7284648;19;20192;-77
2023/08/03 11:27:23;;;;;;;6.60;1.40;;;22.00;99.90;;;;;;7285381;19;20204;-78
2023/08/03 11:29:53;;;;;;;11.20;1.67;;;21.80;99.90;;;;;;7288762;19;20190;-78
2023/08/03 11:32:27;;;;;;;6.33;1.30;;;21.90;99.90;;;;;;7287582;19;20198;-78
2023/08/03 11:35:06;;;;;;;9.10;1.40;;;22.60;99.90;;;;;;7289712;19;21542;-78
2023/08/03 11:37:35;;;;;;;7.90;1.50;;;23.10;99.90;;;;;;7287290;19;20202;-77
2023/08/03 11:40:08;;;;;;;5.40;0.90;;;23.90;99.90;;;;;;7288354;19;20208;-78
2023/08/03 11:42:37;;;;;;;3.57;0.97;;;24.10;99.90;;;;;;7286800;19;20192;-77
2023/08/03 11:45:03;;;;;;;5.10;0.90;;;23.90;99.90;;;;;;7288351;19;20189;-78
2023/08/03 11:47:45;;;;;;;5.20;0.93;;;23.60;99.90;;;;;;7287688;19;20196;-78
2023/08/03 11:50:13;;;;;;;5.47;0.90;;;23.50;99.90;;;;;;7288827;19;20196;-78
2023/08/03 11:52:38;;;;;;;5.13;0.80;;;23.40;99.90;;;;;;7286310;19;20521;-78
2023/08/03 11:55:05;;;;;;;5.00;0.80;;;23.50;99.90;;;;;;7286004;19;20196;-78
2023/08/03 12:00:15;;;;;;;3.47;0.80;;;23.20;99.90;;;;;;7288875;19;20213;-78
2023/08/03 12:02:43;;;;;;;5.33;0.80;;;23.10;99.90;;;;;;7286124;19;20670;-79
2023/08/03 12:05:10;;;;;;;5.57;0.70;;;22.90;99.90;;;;;;7287282;19;20191;-79
2023/08/03 12:07:36;;;;;;;8.17;1.10;;;23.00;99.90;;;;;;7288063;19;21129;-78
2023/08/03 12:10:12;;;;;;;6.77;1.17;;;23.30;99.90;;;;;;7287595;19;20199;-78
2023/08/03 12:12:39;;;;;;;15.53;1.83;;;23.30;99.90;;;;;;7283240;19;20230;-78
2023/08/03 12:15:06;;;;;;;4.77;1.10;;;23.60;99.90;;;;;;7284705;19;20185;-77
2023/08/03 12:17:31;;;;;;;7.20;1.13;;;23.60;99.90;;;;;;7286836;19;20201;-77
2023/08/03 12:19:57;;;;;;;6.13;1.27;;;23.00;99.90;;;;;;7285614;19;20229;-78
2023/08/03 12:22:23;;;;;;;7.43;1.40;;;22.30;99.90;;;;;;7288866;19;20187;-78
2023/08/03 12:24:49;;;;;;;5.47;1.40;;;21.90;99.90;;;;;;7284832;19;20928;-78
2023/08/03 12:27:14;;;;;;;16.43;2.10;;;21.90;99.90;;;;;;7308021;19;20190;-78
2023/08/03 12:29:40;;;;;;;7.00;1.60;;;22.10;99.90;;;;;;7285649;19;20190;-78
2023/08/03 12:32:07;;;;;;;7.30;1.43;;;22.50;99.90;;;;;;7286089;19;20583;-77
2023/08/03 12:34:32;;;;;;;8.27;1.43;;;23.00;99.90;;;;;;7284878;19;20218;-78
2023/08/03 12:36:58;;;;;;;7.83;1.80;;;23.40;99.90;;;;;;7283953;19;20599;-78
2023/08/03 12:39:24;;;;;;;7.23;1.70;;;23.90;99.90;;;;;;7285217;19;20279;-78
2023/08/03 12:41:50;;;;;;;9.17;1.50;;;23.50;99.90;;;;;;7284858;19;20263;-77
2023/08/03 12:44:16;;;;;;;9.73;1.40;;;23.30;99.90;;;;;;7308894;19;20191;-78
2023/08/03 12:46:41;;;;;;;5.90;1.23;;;23.10;99.90;;;;;;7286663;19;20592;-78